Portland, Oregon
Current Conditions -  °F | °C
As of 5:53 PM on Sunday 21 Dec 2014 (Local Time) from KPDX Reporting Station
Light Rain Light Rain  
Wind Chill: 53°   Ceiling: 4100
Heat Index: 53°   Visibility: 9mi
Dew Point: 50°   Wind: 9mph
Humidity: 89%   Direction: 220°SW
Pressure: 30.15"   Gusts: NA
Location:  45.51°N, 122.67°W
Report Text: KPDX 220153Z 22008KT 9SM -RA FEW020 BKN041 OVC065 12/10 A3015 RMK AO2 RAE0059B17E31B46 SLP210 P0001 T01170100
Loading
Personal Weather Stations






























Interactive Weather Map New forecast layout! Learn more

10-Day Weather Forecast

Advertisements
Track Severe Weather on mobile